sensor_id;sensor_type;location;lat;lon;timestamp;temperature;humidity
48454;DHT22;34261;55.678;12.464;2024-02-23T00:02:15;9.30;99.90
48454;DHT22;34261;55.678;12.464;2024-02-23T00:04:41;9.30;99.90
48454;DHT22;34261;55.678;12.464;2024-02-23T00:07:09;9.30;99.90
48454;DHT22;34261;55.678;12.464;2024-02-23T00:09:36;9.30;99.90
48454;DHT22;34261;55.678;12.464;2024-02-23T00:12:05;9.40;99.90
48454;DHT22;34261;55.678;12.464;2024-02-23T00:14:35;9.30;99.90
48454;DHT22;34261;55.678;12.464;2024-02-23T00:17:05;9.40;99.90
48454;DHT22;34261;55.678;12.464;2024-02-23T00:19:31;9.40;99.90
48454;DHT22;34261;55.678;12.464;2024-02-23T00:22:01;9.40;99.90
48454;DHT22;34261;55.678;12.464;2024-02-23T00:24:37;9.40;99.90
48454;DHT22;34261;55.678;12.464;2024-02-23T00:27:08;9.40;99.90
48454;DHT22;34261;55.678;12.464;2024-02-23T00:29:48;9.40;99.90
48454;DHT22;34261;55.678;12.464;2024-02-23T00:32:16;9.30;99.90
48454;DHT22;34261;55.678;12.464;2024-02-23T00:34:56;9.20;99.90
48454;DHT22;34261;55.678;12.464;2024-02-23T00:37:37;9.20;99.90
48454;DHT22;34261;55.678;12.464;2024-02-23T00:40:05;9.10;99.90
48454;DHT22;34261;55.678;12.464;2024-02-23T00:42:41;9.00;99.90
48454;DHT22;34261;55.678;12.464;2024-02-23T00:45:11;9.00;99.90
48454;DHT22;34261;55.678;12.464;2024-02-23T00:47:42;8.90;99.90
48454;DHT22;34261;55.678;12.464;2024-02-23T00:50:15;8.90;99.90
48454;DHT22;34261;55.678;12.464;2024-02-23T00:52:40;8.90;99.90
48454;DHT22;34261;55.678;12.464;2024-02-23T00:55:08;8.90;99.90
48454;DHT22;34261;55.678;12.464;2024-02-23T00:57:38;8.90;99.90
48454;DHT22;34261;55.678;12.464;2024-02-23T01:00:06;8.90;99.90
48454;DHT22;34261;55.678;12.464;2024-02-23T01:02:32;8.90;99.90
48454;DHT22;34261;55.678;12.464;2024-02-23T01:05:00;8.90;99.90
48454;DHT22;34261;55.678;12.464;2024-02-23T01:07:28;8.90;99.90
48454;DHT22;34261;55.678;12.464;2024-02-23T01:09:58;8.90;99.90
48454;DHT22;34261;55.678;12.464;2024-02-23T01:12:29;8.90;99.90
48454;DHT22;34261;55.678;12.464;2024-02-23T01:15:01;8.90;99.90
48454;DHT22;34261;55.678;12.464;2024-02-23T01:17:26;8.90;99.90
48454;DHT22;34261;55.678;12.464;2024-02-23T01:19:52;8.90;99.90
48454;DHT22;34261;55.678;12.464;2024-02-23T01:22:22;8.80;99.90
48454;DHT22;34261;55.678;12.464;2024-02-23T01:24:49;8.90;99.90
48454;DHT22;34261;55.678;12.464;2024-02-23T01:27:16;9.00;99.90
48454;DHT22;34261;55.678;12.464;2024-02-23T01:29:48;9.00;99.90
48454;DHT22;34261;55.678;12.464;2024-02-23T01:32:20;9.10;99.90
48454;DHT22;34261;55.678;12.464;2024-02-23T01:34:46;9.10;99.90
48454;DHT22;34261;55.678;12.464;2024-02-23T01:37:12;9.10;99.90
48454;DHT22;34261;55.678;12.464;2024-02-23T01:39:39;9.10;99.90
48454;DHT22;34261;55.678;12.464;2024-02-23T01:42:06;9.20;99.90
48454;DHT22;34261;55.678;12.464;2024-02-23T01:44:32;9.10;99.90
48454;DHT22;34261;55.678;12.464;2024-02-23T01:46:58;9.20;99.90
48454;DHT22;34261;55.678;12.464;2024-02-23T01:49:28;9.20;99.90
48454;DHT22;34261;55.678;12.464;2024-02-23T01:51:59;9.20;99.90
48454;DHT22;34261;55.678;12.464;2024-02-23T01:54:30;9.10;99.90
48454;DHT22;34261;55.678;12.464;2024-02-23T01:57:02;9.10;99.90
48454;DHT22;34261;55.678;12.464;2024-02-23T01:59:32;9.00;99.90
48454;DHT22;34261;55.678;12.464;2024-02-23T02:02:00;9.00;99.90
48454;DHT22;34261;55.678;12.464;2024-02-23T02:04:25;9.00;99.90
48454;DHT22;34261;55.678;12.464;2024-02-23T02:07:02;9.00;99.90
48454;DHT22;34261;55.678;12.464;2024-02-23T02:09:28;9.00;99.90
48454;DHT22;34261;55.678;12.464;2024-02-23T02:11:55;9.00;99.90
48454;DHT22;34261;55.678;12.464;2024-02-23T02:14:21;9.10;99.90
48454;DHT22;34261;55.678;12.464;2024-02-23T02:16:47;9.10;99.90
48454;DHT22;34261;55.678;12.464;2024-02-23T02:19:17;9.10;99.90
48454;DHT22;34261;55.678;12.464;2024-02-23T02:21:44;9.10;99.90
48454;DHT22;34261;55.678;12.464;2024-02-23T02:24:16;9.10;99.90
48454;DHT22;34261;55.678;12.464;2024-02-23T02:26:41;9.20;99.90
48454;DHT22;34261;55.678;12.464;2024-02-23T02:29:10;9.30;99.90
48454;DHT22;34261;55.678;12.464;2024-02-23T02:31:37;9.40;99.90
48454;DHT22;34261;55.678;12.464;2024-02-23T02:34:04;9.50;99.90
48454;DHT22;34261;55.678;12.464;2024-02-23T02:36:31;9.60;99.90
48454;DHT22;34261;55.678;12.464;2024-02-23T02:38:58;9.60;99.90
48454;DHT22;34261;55.678;12.464;2024-02-23T02:41:30;9.60;99.90
48454;DHT22;34261;55.678;12.464;2024-02-23T02:43:58;9.60;99.90
48454;DHT22;34261;55.678;12.464;2024-02-23T02:46:24;9.60;99.90
48454;DHT22;34261;55.678;12.464;2024-02-23T02:48:53;9.60;99.90
48454;DHT22;34261;55.678;12.464;2024-02-23T02:51:18;9.50;99.90
48454;DHT22;34261;55.678;12.464;2024-02-23T02:53:47;9.50;99.90
48454;DHT22;34261;55.678;12.464;2024-02-23T02:56:23;9.50;99.90
48454;DHT22;34261;55.678;12.464;2024-02-23T02:58:49;9.40;99.90
48454;DHT22;34261;55.678;12.464;2024-02-23T03:01:15;9.40;99.90
48454;DHT22;34261;55.678;12.464;2024-02-23T03:03:52;9.30;99.90
48454;DHT22;34261;55.678;12.464;2024-02-23T03:06:18;9.40;99.90
48454;DHT22;34261;55.678;12.464;2024-02-23T03:08:45;9.20;99.90
48454;DHT22;34261;55.678;12.464;2024-02-23T03:11:12;9.10;99.90
48454;DHT22;34261;55.678;12.464;2024-02-23T03:13:47;9.00;99.90
48454;DHT22;34261;55.678;12.464;2024-02-23T03:16:20;8.90;99.90
48454;DHT22;34261;55.678;12.464;2024-02-23T03:18:47;8.70;99.90
48454;DHT22;34261;55.678;12.464;2024-02-23T03:21:17;8.60;99.90
48454;DHT22;34261;55.678;12.464;2024-02-23T03:23:52;8.50;99.90
48454;DHT22;34261;55.678;12.464;2024-02-23T03:26:19;8.40;99.90
48454;DHT22;34261;55.678;12.464;2024-02-23T03:28:48;8.30;99.90
48454;DHT22;34261;55.678;12.464;2024-02-23T03:31:18;8.20;99.90
48454;DHT22;34261;55.678;12.464;2024-02-23T03:33:45;8.10;99.90
48454;DHT22;34261;55.678;12.464;2024-02-23T03:36:17;8.00;99.90
48454;DHT22;34261;55.678;12.464;2024-02-23T03:39:07;7.90;99.90
48454;DHT22;34261;55.678;12.464;2024-02-23T03:41:33;7.90;99.90
48454;DHT22;34261;55.678;12.464;2024-02-23T03:44:05;7.90;99.90
48454;DHT22;34261;55.678;12.464;2024-02-23T03:46:35;7.80;99.90
48454;DHT22;34261;55.678;12.464;2024-02-23T03:49:04;7.80;99.90
48454;DHT22;34261;55.678;12.464;2024-02-23T03:51:33;7.80;99.90
48454;DHT22;34261;55.678;12.464;2024-02-23T03:54:02;7.80;99.90
48454;DHT22;34261;55.678;12.464;2024-02-23T03:56:29;7.80;99.90
48454;DHT22;34261;55.678;12.464;2024-02-23T03:59:13;7.70;99.90
48454;DHT22;34261;55.678;12.464;2024-02-23T04:01:40;7.70;99.90
48454;DHT22;34261;55.678;12.464;2024-02-23T04:04:19;7.70;99.90
48454;DHT22;34261;55.678;12.464;2024-02-23T04:06:48;7.70;99.90
48454;DHT22;34261;55.678;12.464;2024-02-23T04:09:17;7.70;99.90
48454;DHT22;34261;55.678;12.464;2024-02-23T04:11:53;7.70;99.90
48454;DHT22;34261;55.678;12.464;2024-02-23T04:14:19;7.60;99.90
48454;DHT22;34261;55.678;12.464;2024-02-23T04:16:48;7.60;99.90
48454;DHT22;34261;55.678;12.464;2024-02-23T04:19:14;7.60;99.90
48454;DHT22;34261;55.678;12.464;2024-02-23T04:21:40;7.60;99.90
48454;DHT22;34261;55.678;12.464;2024-02-23T04:24:13;7.50;99.90
48454;DHT22;34261;55.678;12.464;2024-02-23T04:26:43;7.50;99.90
48454;DHT22;34261;55.678;12.464;2024-02-23T04:29:13;7.50;99.90
48454;DHT22;34261;55.678;12.464;2024-02-23T04:31:42;7.50;99.90
48454;DHT22;34261;55.678;12.464;2024-02-23T04:34:11;7.50;99.90
48454;DHT22;34261;55.678;12.464;2024-02-23T04:36:37;7.50;99.90
48454;DHT22;34261;55.678;12.464;2024-02-23T04:39:03;7.50;99.90
48454;DHT22;34261;55.678;12.464;2024-02-23T04:41:30;7.40;99.90
48454;DHT22;34261;55.678;12.464;2024-02-23T04:43:57;7.40;99.90
48454;DHT22;34261;55.678;12.464;2024-02-23T04:46:26;7.40;99.90
48454;DHT22;34261;55.678;12.464;2024-02-23T04:48:53;7.40;99.90
48454;DHT22;34261;55.678;12.464;2024-02-23T04:51:19;7.40;99.90
48454;DHT22;34261;55.678;12.464;2024-02-23T04:53:46;7.30;99.90
48454;DHT22;34261;55.678;12.464;2024-02-23T04:56:13;7.30;99.90
48454;DHT22;34261;55.678;12.464;2024-02-23T04:58:38;7.30;99.90
48454;DHT22;34261;55.678;12.464;2024-02-23T05:01:08;7.20;99.90
48454;DHT22;34261;55.678;12.464;2024-02-23T05:03:40;7.10;99.90
48454;DHT22;34261;55.678;12.464;2024-02-23T05:06:07;7.10;99.90
48454;DHT22;34261;55.678;12.464;2024-02-23T05:08:34;7.10;99.90
48454;DHT22;34261;55.678;12.464;2024-02-23T05:11:14;7.10;99.90
48454;DHT22;34261;55.678;12.464;2024-02-23T05:13:41;7.00;99.90
48454;DHT22;34261;55.678;12.464;2024-02-23T05:16:10;7.00;99.90
48454;DHT22;34261;55.678;12.464;2024-02-23T05:18:39;6.90;99.90
48454;DHT22;34261;55.678;12.464;2024-02-23T05:21:09;7.00;99.90
48454;DHT22;34261;55.678;12.464;2024-02-23T05:23:36;7.00;99.90
48454;DHT22;34261;55.678;12.464;2024-02-23T05:26:02;6.90;99.90
48454;DHT22;34261;55.678;12.464;2024-02-23T05:28:29;6.90;99.90
48454;DHT22;34261;55.678;12.464;2024-02-23T05:30:55;6.90;99.90
48454;DHT22;34261;55.678;12.464;2024-02-23T05:33:24;6.90;99.90
48454;DHT22;34261;55.678;12.464;2024-02-23T05:35:59;7.00;99.90
48454;DHT22;34261;55.678;12.464;2024-02-23T05:38:26;7.00;99.90
48454;DHT22;34261;55.678;12.464;2024-02-23T05:40:53;6.90;99.90
48454;DHT22;34261;55.678;12.464;2024-02-23T05:43:27;7.00;99.90
48454;DHT22;34261;55.678;12.464;2024-02-23T05:45:56;7.00;99.90
48454;DHT22;34261;55.678;12.464;2024-02-23T05:48:25;7.00;99.90
48454;DHT22;34261;55.678;12.464;2024-02-23T05:50:51;7.00;99.90
48454;DHT22;34261;55.678;12.464;2024-02-23T05:53:21;7.00;99.90
48454;DHT22;34261;55.678;12.464;2024-02-23T05:55:47;7.10;99.90
48454;DHT22;34261;55.678;12.464;2024-02-23T05:58:13;7.10;99.90
48454;DHT22;34261;55.678;12.464;2024-02-23T06:00:39;7.10;99.90
48454;DHT22;34261;55.678;12.464;2024-02-23T06:03:05;7.10;99.90
48454;DHT22;34261;55.678;12.464;2024-02-23T06:05:34;7.10;99.90
48454;DHT22;34261;55.678;12.464;2024-02-23T06:08:00;7.10;99.90
48454;DHT22;34261;55.678;12.464;2024-02-23T06:10:28;7.10;99.90
48454;DHT22;34261;55.678;12.464;2024-02-23T06:12:55;7.10;99.90
48454;DHT22;34261;55.678;12.464;2024-02-23T06:15:22;7.00;99.90
48454;DHT22;34261;55.678;12.464;2024-02-23T06:17:52;7.00;99.90
48454;DHT22;34261;55.678;12.464;2024-02-23T06:20:21;7.00;99.90
48454;DHT22;34261;55.678;12.464;2024-02-23T06:22:47;7.00;99.90
48454;DHT22;34261;55.678;12.464;2024-02-23T06:25:13;7.00;99.90
48454;DHT22;34261;55.678;12.464;2024-02-23T06:27:39;7.00;99.90
48454;DHT22;34261;55.678;12.464;2024-02-23T06:30:16;7.10;99.90
48454;DHT22;34261;55.678;12.464;2024-02-23T06:32:52;7.00;99.90
48454;DHT22;34261;55.678;12.464;2024-02-23T06:35:22;7.00;99.90
48454;DHT22;34261;55.678;12.464;2024-02-23T06:37:50;7.10;99.90
48454;DHT22;34261;55.678;12.464;2024-02-23T06:40:20;7.00;99.90
48454;DHT22;34261;55.678;12.464;2024-02-23T06:42:48;7.00;99.90
48454;DHT22;34261;55.678;12.464;2024-02-23T06:45:17;7.00;99.90
48454;DHT22;34261;55.678;12.464;2024-02-23T06:47:47;7.00;99.90
48454;DHT22;34261;55.678;12.464;2024-02-23T06:50:15;7.00;99.90
48454;DHT22;34261;55.678;12.464;2024-02-23T06:52:50;7.00;99.90
48454;DHT22;34261;55.678;12.464;2024-02-23T06:55:16;7.10;99.90
48454;DHT22;34261;55.678;12.464;2024-02-23T06:57:42;7.00;99.90
48454;DHT22;34261;55.678;12.464;2024-02-23T07:00:09;7.00;99.90
48454;DHT22;34261;55.678;12.464;2024-02-23T07:02:35;7.10;99.90
48454;DHT22;34261;55.678;12.464;2024-02-23T07:05:15;7.00;99.90
48454;DHT22;34261;55.678;12.464;2024-02-23T07:07:47;7.00;99.90
48454;DHT22;34261;55.678;12.464;2024-02-23T07:10:18;7.00;99.90
48454;DHT22;34261;55.678;12.464;2024-02-23T07:12:54;7.00;99.90
48454;DHT22;34261;55.678;12.464;2024-02-23T07:15:25;7.00;99.90
48454;DHT22;34261;55.678;12.464;2024-02-23T07:17:53;7.00;99.90
48454;DHT22;34261;55.678;12.464;2024-02-23T07:20:19;7.00;99.90
48454;DHT22;34261;55.678;12.464;2024-02-23T07:22:45;7.00;99.90
48454;DHT22;34261;55.678;12.464;2024-02-23T07:25:22;7.00;99.90
48454;DHT22;34261;55.678;12.464;2024-02-23T07:28:03;7.00;99.90
48454;DHT22;34261;55.678;12.464;2024-02-23T07:30:29;7.00;99.90
48454;DHT22;34261;55.678;12.464;2024-02-23T07:33:00;7.10;99.90
48454;DHT22;34261;55.678;12.464;2024-02-23T07:35:38;7.10;99.90
48454;DHT22;34261;55.678;12.464;2024-02-23T07:38:38;7.20;99.90
48454;DHT22;34261;55.678;12.464;2024-02-23T07:41:04;7.20;99.90
48454;DHT22;34261;55.678;12.464;2024-02-23T07:43:31;7.30;99.90
48454;DHT22;34261;55.678;12.464;2024-02-23T07:45:57;7.20;99.90
48454;DHT22;34261;55.678;12.464;2024-02-23T07:48:29;7.30;99.90
48454;DHT22;34261;55.678;12.464;2024-02-23T07:50:58;7.30;99.90
48454;DHT22;34261;55.678;12.464;2024-02-23T07:53:29;7.30;99.90
48454;DHT22;34261;55.678;12.464;2024-02-23T07:55:55;7.30;99.90
48454;DHT22;34261;55.678;12.464;2024-02-23T07:58:25;7.30;99.90
48454;DHT22;34261;55.678;12.464;2024-02-23T08:00:55;7.40;99.90
48454;DHT22;34261;55.678;12.464;2024-02-23T08:03:26;7.40;99.90
48454;DHT22;34261;55.678;12.464;2024-02-23T08:05:53;7.50;99.90
48454;DHT22;34261;55.678;12.464;2024-02-23T08:08:37;7.50;99.90
48454;DHT22;34261;55.678;12.464;2024-02-23T08:11:11;7.50;99.90
48454;DHT22;34261;55.678;12.464;2024-02-23T08:13:43;7.60;99.90
48454;DHT22;34261;55.678;12.464;2024-02-23T08:16:44;7.70;99.90
48454;DHT22;34261;55.678;12.464;2024-02-23T08:19:13;7.70;99.90
48454;DHT22;34261;55.678;12.464;2024-02-23T08:21:42;7.80;99.90
48454;DHT22;34261;55.678;12.464;2024-02-23T08:24:09;7.90;99.90
48454;DHT22;34261;55.678;12.464;2024-02-23T08:26:35;8.00;99.90
48454;DHT22;34261;55.678;12.464;2024-02-23T08:29:03;8.00;99.90
48454;DHT22;34261;55.678;12.464;2024-02-23T08:31:31;7.90;99.90
48454;DHT22;34261;55.678;12.464;2024-02-23T08:33:58;8.00;99.90
48454;DHT22;34261;55.678;12.464;2024-02-23T08:36:24;8.00;99.90
48454;DHT22;34261;55.678;12.464;2024-02-23T08:38:59;8.00;99.90
48454;DHT22;34261;55.678;12.464;2024-02-23T08:41:26;8.00;99.90
48454;DHT22;34261;55.678;12.464;2024-02-23T08:43:52;8.00;99.90
48454;DHT22;34261;55.678;12.464;2024-02-23T08:46:17;7.80;99.90
48454;DHT22;34261;55.678;12.464;2024-02-23T08:48:45;7.80;99.90
48454;DHT22;34261;55.678;12.464;2024-02-23T08:51:10;7.80;99.90
48454;DHT22;34261;55.678;12.464;2024-02-23T08:53:36;7.80;99.90
48454;DHT22;34261;55.678;12.464;2024-02-23T08:56:02;7.80;99.90
48454;DHT22;34261;55.678;12.464;2024-02-23T08:58:28;7.80;99.90
48454;DHT22;34261;55.678;12.464;2024-02-23T09:00:55;7.80;99.90
48454;DHT22;34261;55.678;12.464;2024-02-23T09:03:21;7.80;99.90
48454;DHT22;34261;55.678;12.464;2024-02-23T09:05:47;7.90;99.90
48454;DHT22;34261;55.678;12.464;2024-02-23T09:08:18;8.10;99.90
48454;DHT22;34261;55.678;12.464;2024-02-23T09:10:44;8.20;99.90
48454;DHT22;34261;55.678;12.464;2024-02-23T09:13:13;8.20;99.90
48454;DHT22;34261;55.678;12.464;2024-02-23T09:15:40;8.20;99.90
48454;DHT22;34261;55.678;12.464;2024-02-23T09:18:08;8.40;99.90
48454;DHT22;34261;55.678;12.464;2024-02-23T09:20:34;8.50;99.90
48454;DHT22;34261;55.678;12.464;2024-02-23T09:22:59;8.60;99.90
48454;DHT22;34261;55.678;12.464;2024-02-23T09:25:34;8.60;99.90
48454;DHT22;34261;55.678;12.464;2024-02-23T09:28:01;8.60;99.90
48454;DHT22;34261;55.678;12.464;2024-02-23T09:30:30;8.50;99.90
48454;DHT22;34261;55.678;12.464;2024-02-23T09:32:57;8.20;99.90
48454;DHT22;34261;55.678;12.464;2024-02-23T09:35:24;8.30;99.90
48454;DHT22;34261;55.678;12.464;2024-02-23T09:37:50;8.30;99.90
48454;DHT22;34261;55.678;12.464;2024-02-23T09:40:16;8.40;99.90
48454;DHT22;34261;55.678;12.464;2024-02-23T09:42:42;8.40;99.90
48454;DHT22;34261;55.678;12.464;2024-02-23T09:45:11;8.60;99.90
48454;DHT22;34261;55.678;12.464;2024-02-23T09:47:37;8.80;99.90
48454;DHT22;34261;55.678;12.464;2024-02-23T09:50:04;8.70;99.90
48454;DHT22;34261;55.678;12.464;2024-02-23T09:52:30;8.60;99.90
48454;DHT22;34261;55.678;12.464;2024-02-23T09:55:02;8.60;99.90
48454;DHT22;34261;55.678;12.464;2024-02-23T09:57:31;8.60;99.90
48454;DHT22;34261;55.678;12.464;2024-02-23T09:59:59;8.60;99.90
48454;DHT22;34261;55.678;12.464;2024-02-23T10:02:25;8.50;99.90
48454;DHT22;34261;55.678;12.464;2024-02-23T10:04:54;8.60;99.90
48454;DHT22;34261;55.678;12.464;2024-02-23T10:07:21;8.60;99.90
48454;DHT22;34261;55.678;12.464;2024-02-23T10:09:48;8.60;99.90
48454;DHT22;34261;55.678;12.464;2024-02-23T10:12:24;8.70;99.90
48454;DHT22;34261;55.678;12.464;2024-02-23T10:14:50;8.70;99.90
48454;DHT22;34261;55.678;12.464;2024-02-23T10:17:17;8.50;99.90
48454;DHT22;34261;55.678;12.464;2024-02-23T10:19:44;8.40;99.90
48454;DHT22;34261;55.678;12.464;2024-02-23T10:22:14;8.40;99.90
48454;DHT22;34261;55.678;12.464;2024-02-23T10:24:42;8.30;99.90
48454;DHT22;34261;55.678;12.464;2024-02-23T10:27:08;8.20;99.90
48454;DHT22;34261;55.678;12.464;2024-02-23T10:29:36;8.00;99.90
48454;DHT22;34261;55.678;12.464;2024-02-23T10:32:35;8.10;99.90
48454;DHT22;34261;55.678;12.464;2024-02-23T10:35:01;8.20;99.90
48454;DHT22;34261;55.678;12.464;2024-02-23T10:37:31;8.30;99.90
48454;DHT22;34261;55.678;12.464;2024-02-23T10:39:58;8.20;99.90
48454;DHT22;34261;55.678;12.464;2024-02-23T10:42:35;8.20;99.90
48454;DHT22;34261;55.678;12.464;2024-02-23T10:45:02;8.20;99.90
48454;DHT22;34261;55.678;12.464;2024-02-23T10:47:32;8.10;99.90
48454;DHT22;34261;55.678;12.464;2024-02-23T10:50:02;8.10;99.90
48454;DHT22;34261;55.678;12.464;2024-02-23T10:52:33;8.30;99.90
48454;DHT22;34261;55.678;12.464;2024-02-23T10:55:00;8.30;99.90
48454;DHT22;34261;55.678;12.464;2024-02-23T10:57:32;8.40;99.90
48454;DHT22;34261;55.678;12.464;2024-02-23T11:00:00;8.40;99.90
48454;DHT22;34261;55.678;12.464;2024-02-23T11:02:28;8.40;99.90
48454;DHT22;34261;55.678;12.464;2024-02-23T11:04:57;8.40;99.90
48454;DHT22;34261;55.678;12.464;2024-02-23T11:07:29;8.60;99.90
48454;DHT22;34261;55.678;12.464;2024-02-23T11:10:04;8.80;99.90
48454;DHT22;34261;55.678;12.464;2024-02-23T11:12:30;8.90;99.90
48454;DHT22;34261;55.678;12.464;2024-02-23T11:14:57;8.90;99.90
48454;DHT22;34261;55.678;12.464;2024-02-23T11:17:27;8.90;99.90
48454;DHT22;34261;55.678;12.464;2024-02-23T11:20:16;8.80;99.90
48454;DHT22;34261;55.678;12.464;2024-02-23T11:22:43;8.50;99.90
48454;DHT22;34261;55.678;12.464;2024-02-23T11:25:09;7.90;99.90
48454;DHT22;34261;55.678;12.464;2024-02-23T11:27:37;7.50;99.90
48454;DHT22;34261;55.678;12.464;2024-02-23T11:30:05;7.40;99.90
48454;DHT22;34261;55.678;12.464;2024-02-23T11:32:45;7.40;99.90
48454;DHT22;34261;55.678;12.464;2024-02-23T11:35:15;7.70;99.90
48454;DHT22;34261;55.678;12.464;2024-02-23T11:37:55;7.80;99.90
48454;DHT22;34261;55.678;12.464;2024-02-23T11:40:32;7.90;99.90
48454;DHT22;34261;55.678;12.464;2024-02-23T11:42:58;8.10;99.90
48454;DHT22;34261;55.678;12.464;2024-02-23T11:45:31;8.40;99.90
48454;DHT22;34261;55.678;12.464;2024-02-23T11:47:56;8.50;99.90
48454;DHT22;34261;55.678;12.464;2024-02-23T11:50:22;8.70;99.90
48454;DHT22;34261;55.678;12.464;2024-02-23T11:52:48;8.90;99.90
48454;DHT22;34261;55.678;12.464;2024-02-23T11:55:19;9.10;99.90
48454;DHT22;34261;55.678;12.464;2024-02-23T11:57:49;9.20;99.90
48454;DHT22;34261;55.678;12.464;2024-02-23T12:00:15;9.00;99.90
48454;DHT22;34261;55.678;12.464;2024-02-23T12:02:52;9.20;99.90
48454;DHT22;34261;55.678;12.464;2024-02-23T12:05:22;9.50;99.90
48454;DHT22;34261;55.678;12.464;2024-02-23T12:07:48;9.50;99.90
48454;DHT22;34261;55.678;12.464;2024-02-23T12:10:14;9.40;99.90
48454;DHT22;34261;55.678;12.464;2024-02-23T12:12:40;9.30;99.90
48454;DHT22;34261;55.678;12.464;2024-02-23T12:15:06;9.60;99.90
48454;DHT22;34261;55.678;12.464;2024-02-23T12:17:35;9.80;99.90
48454;DHT22;34261;55.678;12.464;2024-02-23T12:20:03;10.20;99.90
48454;DHT22;34261;55.678;12.464;2024-02-23T12:22:30;10.40;99.90
48454;DHT22;34261;55.678;12.464;2024-02-23T12:24:59;10.40;99.90
48454;DHT22;34261;55.678;12.464;2024-02-23T12:27:27;10.40;99.90
48454;DHT22;34261;55.678;12.464;2024-02-23T12:30:00;10.30;99.90
48454;DHT22;34261;55.678;12.464;2024-02-23T12:32:27;10.00;99.90
48454;DHT22;34261;55.678;12.464;2024-02-23T12:34:54;10.20;99.90
48454;DHT22;34261;55.678;12.464;2024-02-23T12:37:21;10.50;99.90
48454;DHT22;34261;55.678;12.464;2024-02-23T12:39:50;10.60;99.90
48454;DHT22;34261;55.678;12.464;2024-02-23T12:42:17;10.50;99.90
48454;DHT22;34261;55.678;12.464;2024-02-23T12:44:44;10.20;99.90
48454;DHT22;34261;55.678;12.464;2024-02-23T12:47:15;10.20;99.90
48454;DHT22;34261;55.678;12.464;2024-02-23T12:49:41;10.20;99.90
48454;DHT22;34261;55.678;12.464;2024-02-23T12:52:11;10.30;99.90
48454;DHT22;34261;55.678;12.464;2024-02-23T12:54:38;10.10;99.90
48454;DHT22;34261;55.678;12.464;2024-02-23T12:57:07;10.10;99.90
48454;DHT22;34261;55.678;12.464;2024-02-23T12:59:38;10.40;99.90
48454;DHT22;34261;55.678;12.464;2024-02-23T13:02:07;10.70;99.90
48454;DHT22;34261;55.678;12.464;2024-02-23T13:04:34;10.70;99.90
48454;DHT22;34261;55.678;12.464;2024-02-23T13:07:00;10.70;99.90
48454;DHT22;34261;55.678;12.464;2024-02-23T13:09:31;10.60;99.90
48454;DHT22;34261;55.678;12.464;2024-02-23T13:11:58;10.70;99.90
48454;DHT22;34261;55.678;12.464;2024-02-23T13:14:26;10.70;99.90
48454;DHT22;34261;55.678;12.464;2024-02-23T13:16:55;10.50;99.90
48454;DHT22;34261;55.678;12.464;2024-02-23T13:19:23;10.50;99.90
48454;DHT22;34261;55.678;12.464;2024-02-23T13:21:49;10.30;99.90
48454;DHT22;34261;55.678;12.464;2024-02-23T13:24:15;10.40;99.90
48454;DHT22;34261;55.678;12.464;2024-02-23T13:26:41;10.30;99.90
48454;DHT22;34261;55.678;12.464;2024-02-23T13:29:08;10.50;99.90
48454;DHT22;34261;55.678;12.464;2024-02-23T13:31:35;10.30;99.90
48454;DHT22;34261;55.678;12.464;2024-02-23T13:34:03;10.40;99.90
48454;DHT22;34261;55.678;12.464;2024-02-23T13:36:29;10.60;99.90
48454;DHT22;34261;55.678;12.464;2024-02-23T13:38:55;10.50;99.90
48454;DHT22;34261;55.678;12.464;2024-02-23T13:41:21;10.40;99.90
48454;DHT22;34261;55.678;12.464;2024-02-23T13:43:46;10.30;99.90
48454;DHT22;34261;55.678;12.464;2024-02-23T13:46:12;10.30;99.90
48454;DHT22;34261;55.678;12.464;2024-02-23T13:48:37;10.20;99.90
48454;DHT22;34261;55.678;12.464;2024-02-23T13:51:04;10.20;99.90
48454;DHT22;34261;55.678;12.464;2024-02-23T13:53:32;10.40;99.90
48454;DHT22;34261;55.678;12.464;2024-02-23T13:55:58;10.40;99.90
48454;DHT22;34261;55.678;12.464;2024-02-23T13:58:25;10.30;99.90
48454;DHT22;34261;55.678;12.464;2024-02-23T14:00:51;10.30;99.90
48454;DHT22;34261;55.678;12.464;2024-02-23T14:03:17;10.50;99.90
48454;DHT22;34261;55.678;12.464;2024-02-23T14:05:45;10.40;99.90
48454;DHT22;34261;55.678;12.464;2024-02-23T14:08:12;10.40;99.90
48454;DHT22;34261;55.678;12.464;2024-02-23T14:10:38;10.50;99.90
48454;DHT22;34261;55.678;12.464;2024-02-23T14:13:06;10.60;99.90
48454;DHT22;34261;55.678;12.464;2024-02-23T14:15:32;10.60;99.90
48454;DHT22;34261;55.678;12.464;2024-02-23T14:17:58;10.60;99.90
48454;DHT22;34261;55.678;12.464;2024-02-23T14:20:24;10.70;99.90
48454;DHT22;34261;55.678;12.464;2024-02-23T14:22:49;10.80;99.90
48454;DHT22;34261;55.678;12.464;2024-02-23T14:25:18;10.80;99.90
48454;DHT22;34261;55.678;12.464;2024-02-23T14:27:51;11.10;99.90
48454;DHT22;34261;55.678;12.464;2024-02-23T14:30:18;11.40;99.90
48454;DHT22;34261;55.678;12.464;2024-02-23T14:32:45;11.30;99.90
48454;DHT22;34261;55.678;12.464;2024-02-23T14:35:11;11.50;99.90
48454;DHT22;34261;55.678;12.464;2024-02-23T14:37:37;11.50;99.90
48454;DHT22;34261;55.678;12.464;2024-02-23T14:40:03;11.50;99.90
48454;DHT22;34261;55.678;12.464;2024-02-23T14:42:29;11.00;99.90
48454;DHT22;34261;55.678;12.464;2024-02-23T14:44:54;10.80;99.90
48454;DHT22;34261;55.678;12.464;2024-02-23T14:47:21;10.60;99.90
48454;DHT22;34261;55.678;12.464;2024-02-23T14:49:47;10.70;99.90
48454;DHT22;34261;55.678;12.464;2024-02-23T14:52:15;10.70;99.90
48454;DHT22;34261;55.678;12.464;2024-02-23T14:54:41;10.70;99.90
48454;DHT22;34261;55.678;12.464;2024-02-23T14:57:07;10.60;99.90
48454;DHT22;34261;55.678;12.464;2024-02-23T14:59:33;10.70;99.90
48454;DHT22;34261;55.678;12.464;2024-02-23T15:02:07;10.60;99.90
48454;DHT22;34261;55.678;12.464;2024-02-23T15:04:33;10.50;99.90
48454;DHT22;34261;55.678;12.464;2024-02-23T15:06:58;10.50;99.90
48454;DHT22;34261;55.678;12.464;2024-02-23T15:09:24;10.30;99.90
48454;DHT22;34261;55.678;12.464;2024-02-23T15:11:49;10.30;99.90
48454;DHT22;34261;55.678;12.464;2024-02-23T15:14:16;10.00;99.90
48454;DHT22;34261;55.678;12.464;2024-02-23T15:16:41;10.00;99.90
48454;DHT22;34261;55.678;12.464;2024-02-23T15:19:07;9.80;99.90
48454;DHT22;34261;55.678;12.464;2024-02-23T15:21:45;9.80;99.90
48454;DHT22;34261;55.678;12.464;2024-02-23T15:24:11;10.10;99.90
48454;DHT22;34261;55.678;12.464;2024-02-23T15:26:38;10.20;99.90
48454;DHT22;34261;55.678;12.464;2024-02-23T15:29:04;10.20;99.90
48454;DHT22;34261;55.678;12.464;2024-02-23T15:31:30;10.30;99.90
48454;DHT22;34261;55.678;12.464;2024-02-23T15:33:57;10.10;99.90
48454;DHT22;34261;55.678;12.464;2024-02-23T15:36:27;10.00;99.90
48454;DHT22;34261;55.678;12.464;2024-02-23T15:38:53;9.80;99.90